Terminal Aerodrome Forecast
Issued by NWS Memphis, TN

Home | Current Version | Previous Version | Text Only | Print | Product List | Glossary On
Versions: 1 2 3 4 5 6 7 8 9 10 11 12 13 14 15 16 17 18 19 20 21 22 23 24 25 26 27
000
FTUS44 KMEG 270651 AAA
TAFMEM
TAF AMD
KMEM 270651Z 2707/2806 15005KT P6SM OVC026
     FM270800 16007KT P6SM VCSH OVC025
     FM271200 16010KT 6SM -RA OVC025
     FM271500 18009KT 4SM -RA OVC015
     FM280100 02008KT 4SM RA BR OVC005=

USA.gov is the U.S. government's official web portal to all federal, state and local government web resources and services.